createdAt,value
2023-01-31T00:00:53.333Z,1.48
2023-01-31T00:03:20.055Z,1.65
2023-01-31T00:05:46.777Z,1.60
2023-01-31T00:08:15.341Z,1.63
2023-01-31T00:10:42.091Z,1.67
2023-01-31T00:13:08.914Z,1.90
2023-01-31T00:15:36.046Z,1.70
2023-01-31T00:18:02.739Z,1.40
2023-01-31T00:20:29.470Z,2.03
2023-01-31T00:22:56.144Z,1.67
2023-01-31T00:25:22.871Z,1.50
2023-01-31T00:27:49.539Z,1.98
2023-01-31T00:30:16.335Z,1.83
2023-01-31T00:32:43.105Z,1.88
2023-01-31T00:35:10.214Z,2.00
2023-01-31T00:37:36.990Z,1.77
2023-01-31T00:40:04.534Z,1.73
2023-01-31T00:42:31.272Z,1.75
2023-01-31T00:44:58.077Z,1.63
2023-01-31T00:47:24.760Z,1.60
2023-01-31T00:49:53.880Z,1.70
2023-01-31T00:52:20.572Z,1.52
2023-01-31T00:54:47.421Z,1.70
2023-01-31T00:57:14.152Z,1.40
2023-01-31T00:59:41.096Z,1.90
2023-01-31T01:02:07.898Z,1.80
2023-01-31T01:04:35.116Z,1.90
2023-01-31T01:07:02.232Z,1.58
2023-01-31T01:09:28.935Z,1.55
2023-01-31T01:11:55.650Z,1.77
2023-01-31T01:14:22.351Z,1.40
2023-01-31T01:16:49.113Z,1.95
2023-01-31T01:19:17.504Z,1.88
2023-01-31T01:21:44.496Z,1.85
2023-01-31T01:24:16.032Z,1.70
2023-01-31T01:26:43.323Z,1.80
2023-01-31T01:29:10.023Z,1.75
2023-01-31T01:31:38.008Z,1.80
2023-01-31T01:34:06.951Z,1.75
2023-01-31T01:36:35.091Z,1.80
2023-01-31T01:39:02.000Z,1.88
2023-01-31T01:41:28.771Z,1.67
2023-01-31T01:43:59.036Z,1.88
2023-01-31T01:46:30.469Z,1.67
2023-01-31T01:49:26.530Z,2.00
2023-01-31T01:51:53.447Z,2.20
2023-01-31T01:54:23.049Z,1.77
2023-01-31T01:56:51.159Z,1.70
2023-01-31T01:59:23.281Z,1.92
2023-01-31T02:01:50.002Z,1.70
2023-01-31T02:04:21.224Z,1.40
2023-01-31T02:06:47.963Z,1.60
2023-01-31T02:09:29.999Z,1.65
2023-01-31T02:11:56.670Z,1.77
2023-01-31T02:14:23.331Z,1.77
2023-01-31T02:16:50.055Z,1.92
2023-01-31T02:19:39.706Z,1.40
2023-01-31T02:22:43.182Z,1.98
2023-01-31T02:25:31.070Z,1.90
2023-01-31T02:28:40.321Z,1.70
2023-01-31T02:31:32.100Z,1.45
2023-01-31T02:34:12.965Z,1.58
2023-01-31T02:37:05.148Z,1.67
2023-01-31T02:39:41.849Z,1.80
2023-01-31T02:42:14.213Z,1.75
2023-01-31T02:44:59.264Z,1.88
2023-01-31T02:47:56.403Z,1.58
2023-01-31T02:50:25.999Z,1.63
2023-01-31T02:52:53.328Z,1.67
2023-01-31T02:55:38.403Z,1.75
2023-01-31T02:58:06.878Z,1.70
2023-01-31T03:00:34.365Z,1.40
2023-01-31T03:03:01.118Z,1.50
2023-01-31T03:05:27.929Z,1.60
2023-01-31T03:07:56.058Z,1.60
2023-01-31T03:10:34.737Z,1.60
2023-01-31T03:13:09.061Z,1.67
2023-01-31T03:16:29.811Z,1.70
2023-01-31T03:19:29.000Z,1.92
2023-01-31T03:22:01.255Z,1.70
2023-01-31T03:24:30.161Z,1.80
2023-01-31T03:26:57.605Z,1.70
2023-01-31T03:29:24.408Z,1.70
2023-01-31T03:31:55.079Z,1.73
2023-01-31T03:34:21.918Z,1.80
2023-01-31T03:37:13.301Z,1.88
2023-01-31T03:40:06.144Z,1.77
2023-01-31T03:42:46.283Z,1.83
2023-01-31T03:45:20.847Z,1.75
2023-01-31T03:47:49.262Z,2.03
2023-01-31T03:50:28.279Z,1.90
2023-01-31T03:53:22.360Z,1.85
2023-01-31T03:56:20.046Z,2.10
2023-01-31T03:58:53.751Z,1.50
2023-01-31T04:01:20.810Z,1.55
2023-01-31T04:03:57.834Z,1.65
2023-01-31T04:06:24.483Z,1.95
2023-01-31T04:08:51.380Z,2.08
2023-01-31T04:11:20.365Z,1.90
2023-01-31T04:13:47.052Z,1.80
2023-01-31T04:16:13.829Z,1.80
2023-01-31T04:18:40.510Z,1.75
2023-01-31T04:21:07.299Z,1.80
2023-01-31T04:23:33.973Z,1.80
2023-01-31T04:26:00.707Z,1.65
2023-01-31T04:28:27.455Z,1.92
2023-01-31T04:30:54.978Z,1.60
2023-01-31T04:33:21.752Z,1.77
2023-01-31T04:35:48.420Z,1.80
2023-01-31T04:38:15.386Z,1.80
2023-01-31T04:40:42.122Z,1.75
2023-01-31T04:43:10.699Z,1.80
2023-01-31T04:45:37.600Z,1.73
2023-01-31T04:48:04.609Z,1.60
2023-01-31T04:50:31.756Z,1.77
2023-01-31T04:52:58.459Z,1.70
2023-01-31T04:55:26.870Z,1.73
2023-01-31T04:57:53.928Z,1.60
2023-01-31T05:00:21.124Z,1.70
2023-01-31T05:02:47.826Z,1.90
2023-01-31T05:05:14.510Z,1.65
2023-01-31T05:07:41.201Z,1.60
2023-01-31T05:10:08.629Z,1.90
2023-01-31T05:12:35.333Z,1.63
2023-01-31T05:15:02.219Z,2.03
2023-01-31T05:17:29.956Z,1.67
2023-01-31T05:19:57.352Z,1.80
2023-01-31T05:22:24.519Z,1.50
2023-01-31T05:24:51.235Z,1.70
2023-01-31T05:27:18.683Z,1.70
2023-01-31T05:29:45.850Z,1.60
2023-01-31T05:32:12.859Z,1.38
2023-01-31T05:34:39.553Z,1.52
2023-01-31T05:37:06.254Z,1.63
2023-01-31T05:39:33.070Z,1.55
2023-01-31T05:41:59.914Z,1.70
2023-01-31T05:44:26.948Z,1.75
2023-01-31T05:46:53.694Z,1.80
2023-01-31T05:49:20.396Z,1.80
2023-01-31T05:51:47.100Z,1.80
2023-01-31T05:54:13.888Z,1.80
2023-01-31T05:56:40.789Z,1.80
2023-01-31T05:59:07.534Z,1.70
2023-01-31T06:01:34.260Z,2.20
2023-01-31T06:04:01.044Z,2.05
2023-01-31T06:06:27.729Z,1.90
2023-01-31T06:08:54.450Z,1.80
2023-01-31T06:11:21.207Z,1.75
2023-01-31T06:13:49.374Z,1.92
2023-01-31T06:16:16.214Z,1.83
2023-01-31T06:18:42.950Z,1.70
2023-01-31T06:21:09.667Z,1.80
2023-01-31T06:23:36.524Z,2.00
2023-01-31T06:26:03.183Z,2.40
2023-01-31T06:28:30.663Z,2.53
2023-01-31T06:30:58.992Z,2.08
2023-01-31T06:33:42.319Z,2.53
2023-01-31T06:36:11.343Z,2.30
2023-01-31T06:38:38.032Z,2.38
2023-01-31T06:41:04.895Z,1.85
2023-01-31T06:43:31.785Z,2.00
2023-01-31T06:45:58.723Z,2.25
2023-01-31T06:48:25.399Z,1.95
2023-01-31T06:50:52.090Z,2.05
2023-01-31T06:53:18.758Z,1.90
2023-01-31T06:55:45.462Z,2.00
2023-01-31T06:58:12.159Z,2.08
2023-01-31T07:00:38.883Z,2.08
2023-01-31T07:03:05.614Z,2.40
2023-01-31T07:05:33.603Z,2.08
2023-01-31T07:08:00.388Z,1.77
2023-01-31T07:10:27.393Z,1.83
2023-01-31T07:12:54.117Z,1.73
2023-01-31T07:15:21.199Z,1.92
2023-01-31T07:17:48.267Z,2.22
2023-01-31T07:20:15.040Z,2.20
2023-01-31T07:22:41.890Z,2.05
2023-01-31T07:25:08.944Z,1.83
2023-01-31T07:27:35.781Z,1.95
2023-01-31T07:30:02.462Z,1.80
2023-01-31T07:32:31.047Z,2.13
2023-01-31T07:34:58.409Z,2.20
2023-01-31T07:37:25.108Z,2.05
2023-01-31T07:39:51.814Z,1.90
2023-01-31T07:42:18.545Z,1.90
2023-01-31T07:44:45.262Z,2.10
2023-01-31T07:47:12.010Z,2.03
2023-01-31T07:49:38.685Z,2.30
2023-01-31T07:52:06.102Z,1.95
2023-01-31T07:54:33.625Z,1.88
2023-01-31T07:57:00.422Z,1.67
2023-01-31T07:59:27.252Z,2.20
2023-01-31T08:02:12.469Z,1.70
2023-01-31T08:04:39.234Z,1.75
2023-01-31T08:07:06.995Z,2.15
2023-01-31T08:09:33.838Z,1.90
2023-01-31T08:12:00.569Z,2.10
2023-01-31T08:14:28.644Z,1.80
2023-01-31T08:16:55.942Z,2.20
2023-01-31T08:19:22.898Z,2.10
2023-01-31T08:21:50.030Z,1.90
2023-01-31T08:24:16.756Z,1.88
2023-01-31T08:26:44.368Z,1.80
2023-01-31T08:29:11.122Z,1.83
2023-01-31T08:31:37.927Z,2.15
2023-01-31T08:34:06.684Z,1.95
2023-01-31T08:36:33.917Z,1.70
2023-01-31T08:39:00.869Z,2.05
2023-01-31T08:41:29.118Z,2.03
2023-01-31T08:43:58.952Z,1.90
2023-01-31T08:46:30.746Z,1.90
2023-01-31T08:48:58.762Z,2.10
2023-01-31T08:51:25.471Z,2.08
2023-01-31T08:53:52.384Z,1.60
2023-01-31T08:56:21.259Z,1.88
2023-01-31T08:58:48.184Z,1.80
2023-01-31T09:01:15.970Z,1.88
2023-01-31T09:03:45.054Z,1.55
2023-01-31T09:06:19.272Z,1.73
2023-01-31T09:08:46.095Z,1.98
2023-01-31T09:11:19.873Z,2.22
2023-01-31T09:13:47.225Z,1.67
2023-01-31T09:16:14.268Z,2.10
2023-01-31T09:18:41.273Z,1.98
2023-01-31T09:21:15.889Z,2.13
2023-01-31T09:23:43.023Z,1.98
2023-01-31T09:26:12.902Z,1.80
2023-01-31T09:28:42.717Z,2.00
2023-01-31T09:31:11.860Z,1.80
2023-01-31T09:33:38.779Z,2.10
2023-01-31T09:36:07.527Z,1.60
2023-01-31T09:38:34.529Z,1.90
2023-01-31T09:41:06.366Z,1.90
2023-01-31T09:43:43.381Z,1.90
2023-01-31T09:46:19.352Z,2.15
2023-01-31T09:48:48.948Z,1.80
2023-01-31T09:51:16.160Z,1.92
2023-01-31T09:53:43.324Z,1.80
2023-01-31T09:56:36.859Z,1.90
2023-01-31T09:59:37.206Z,1.88
2023-01-31T10:02:23.431Z,2.10
2023-01-31T10:05:13.783Z,1.98
2023-01-31T10:08:02.784Z,1.95
2023-01-31T10:10:49.114Z,1.98
2023-01-31T10:13:39.487Z,2.17
2023-01-31T10:16:18.141Z,1.95
2023-01-31T10:18:55.082Z,1.90
2023-01-31T10:21:24.323Z,1.60
2023-01-31T10:23:55.561Z,1.95
2023-01-31T10:26:32.644Z,1.73
2023-01-31T10:29:14.181Z,1.92
2023-01-31T10:31:47.153Z,1.80
2023-01-31T10:34:40.524Z,2.00
2023-01-31T10:37:12.727Z,1.70
2023-01-31T10:39:56.258Z,1.58
2023-01-31T10:42:30.841Z,1.80
2023-01-31T10:45:17.376Z,1.60
2023-01-31T10:48:22.275Z,2.00
2023-01-31T10:51:08.059Z,1.60
2023-01-31T10:53:50.088Z,1.75
2023-01-31T10:56:32.671Z,1.67
2023-01-31T10:59:01.420Z,1.40
2023-01-31T11:01:29.689Z,1.52
2023-01-31T11:03:57.700Z,1.80
2023-01-31T11:06:25.214Z,1.58
2023-01-31T11:09:00.325Z,1.45
2023-01-31T11:11:29.174Z,1.45
2023-01-31T11:14:00.644Z,1.70
2023-01-31T11:16:33.953Z,1.60
2023-01-31T11:19:03.246Z,1.25
2023-01-31T11:21:31.609Z,1.30
2023-01-31T11:24:05.846Z,1.63
2023-01-31T11:26:37.393Z,1.40
2023-01-31T11:29:18.881Z,1.63
2023-01-31T11:31:47.735Z,1.58
2023-01-31T11:34:22.704Z,2.03
2023-01-31T11:36:49.886Z,2.05
2023-01-31T11:39:32.019Z,2.30
2023-01-31T11:42:06.095Z,2.08
2023-01-31T11:44:33.198Z,1.95
2023-01-31T11:47:04.650Z,1.83
2023-01-31T11:49:31.335Z,1.90
2023-01-31T11:52:00.690Z,1.70
2023-01-31T11:54:31.337Z,1.88
2023-01-31T11:57:00.557Z,1.70
2023-01-31T11:59:30.124Z,1.67
2023-01-31T12:02:00.265Z,1.83
2023-01-31T12:04:40.907Z,2.17
2023-01-31T12:07:25.320Z,1.95
2023-01-31T12:09:52.623Z,1.65
2023-01-31T12:12:34.664Z,1.92
2023-01-31T12:15:14.742Z,2.28
2023-01-31T12:17:44.932Z,1.90
2023-01-31T12:20:28.763Z,1.98
2023-01-31T12:23:05.081Z,1.95
2023-01-31T12:25:49.639Z,2.22
2023-01-31T12:28:47.716Z,2.50
2023-01-31T12:31:33.286Z,2.17
2023-01-31T12:34:47.085Z,2.10
2023-01-31T12:37:28.644Z,1.85
2023-01-31T12:40:24.771Z,1.92
2023-01-31T12:42:59.644Z,1.90
2023-01-31T12:45:38.381Z,1.85
2023-01-31T12:48:08.044Z,1.75
2023-01-31T12:51:03.948Z,1.48
2023-01-31T12:53:39.821Z,1.70
2023-01-31T12:56:29.194Z,1.90
2023-01-31T12:59:16.372Z,1.70
2023-01-31T13:01:51.160Z,2.03
2023-01-31T13:04:34.860Z,1.98
2023-01-31T13:07:04.765Z,2.60
2023-01-31T13:09:34.957Z,2.20
2023-01-31T13:12:20.435Z,2.17
2023-01-31T13:15:11.088Z,3.38
2023-01-31T13:17:38.893Z,2.45
2023-01-31T13:20:35.711Z,2.22
2023-01-31T13:23:09.647Z,1.92
2023-01-31T13:25:50.239Z,2.30
2023-01-31T13:28:19.480Z,3.05
2023-01-31T13:30:50.977Z,3.30
2023-01-31T13:33:23.824Z,2.95
2023-01-31T13:36:15.446Z,2.75
2023-01-31T13:38:43.740Z,2.67
2023-01-31T13:41:30.426Z,2.17
2023-01-31T13:43:59.305Z,2.15
2023-01-31T13:46:55.691Z,2.08
2023-01-31T13:49:34.438Z,2.08
2023-01-31T13:52:03.544Z,2.00
2023-01-31T13:54:35.496Z,2.00
2023-01-31T13:57:02.483Z,2.05
2023-01-31T13:59:37.956Z,1.85
2023-01-31T14:02:06.091Z,1.58
2023-01-31T14:04:39.066Z,2.03
2023-01-31T14:07:06.948Z,2.08
2023-01-31T14:09:36.038Z,2.00
2023-01-31T14:12:22.649Z,1.92
2023-01-31T14:14:49.341Z,2.35
2023-01-31T14:17:22.154Z,2.00
2023-01-31T14:19:51.855Z,1.67
2023-01-31T14:22:34.148Z,2.33
2023-01-31T14:25:01.984Z,1.90
2023-01-31T14:27:40.729Z,1.80
2023-01-31T14:30:07.818Z,1.50
2023-01-31T14:32:47.595Z,1.90
2023-01-31T14:35:14.401Z,1.77
2023-01-31T14:37:52.480Z,1.70
2023-01-31T14:40:28.066Z,1.80
2023-01-31T14:42:54.724Z,1.85
2023-01-31T14:45:30.542Z,2.15
2023-01-31T14:48:03.175Z,1.80
2023-01-31T14:50:30.556Z,1.77
2023-01-31T14:53:18.899Z,1.92
2023-01-31T14:56:08.201Z,2.05
2023-01-31T14:58:36.043Z,1.90
2023-01-31T15:01:05.213Z,1.20
2023-01-31T15:03:38.462Z,1.45
2023-01-31T15:06:29.088Z,1.38
2023-01-31T15:09:17.508Z,1.20
2023-01-31T15:11:45.199Z,1.60
2023-01-31T15:14:34.773Z,2.20
2023-01-31T15:17:35.627Z,1.88
2023-01-31T15:20:17.533Z,2.83
2023-01-31T15:22:44.221Z,2.30
2023-01-31T15:25:49.950Z,1.80
2023-01-31T15:28:21.679Z,1.92
2023-01-31T15:30:48.787Z,2.22
2023-01-31T15:33:16.482Z,1.80
2023-01-31T15:35:48.573Z,1.95
2023-01-31T15:38:41.066Z,1.63
2023-01-31T15:41:25.474Z,1.25
2023-01-31T15:43:53.966Z,1.45
2023-01-31T15:46:35.788Z,1.17
2023-01-31T15:49:08.170Z,1.30
2023-01-31T15:51:34.910Z,1.30
2023-01-31T15:54:06.096Z,1.23
2023-01-31T15:56:35.544Z,1.30
2023-01-31T15:59:04.295Z,1.58
2023-01-31T16:01:32.242Z,1.30
2023-01-31T16:03:59.200Z,1.70
2023-01-31T16:06:34.572Z,1.73
2023-01-31T16:09:02.752Z,1.40
2023-01-31T16:11:33.549Z,1.30
2023-01-31T16:14:05.235Z,1.30
2023-01-31T16:16:34.686Z,1.10
2023-01-31T16:19:02.124Z,1.42
2023-01-31T16:21:38.555Z,1.20
2023-01-31T16:24:12.125Z,1.65
2023-01-31T16:27:00.330Z,1.63
2023-01-31T16:29:41.005Z,1.25
2023-01-31T16:32:24.021Z,1.73
2023-01-31T16:35:04.841Z,1.30
2023-01-31T16:37:41.889Z,1.35
2023-01-31T16:40:21.197Z,1.67
2023-01-31T16:42:48.072Z,1.30
2023-01-31T16:45:33.778Z,1.67
2023-01-31T16:48:28.156Z,1.45
2023-01-31T16:51:04.908Z,1.58
2023-01-31T16:53:34.255Z,1.50
2023-01-31T16:56:13.329Z,1.55
2023-01-31T16:58:58.554Z,1.48
2023-01-31T17:01:31.106Z,1.77
2023-01-31T17:04:09.760Z,1.30
2023-01-31T17:06:36.497Z,1.40
2023-01-31T17:09:05.425Z,1.30
2023-01-31T17:11:42.746Z,1.58
2023-01-31T17:14:10.308Z,1.40
2023-01-31T17:16:37.054Z,1.48
2023-01-31T17:19:05.680Z,1.73
2023-01-31T17:21:35.925Z,1.30
2023-01-31T17:24:03.435Z,1.10
2023-01-31T17:26:31.130Z,1.50
2023-01-31T17:29:01.867Z,1.33
2023-01-31T17:31:29.606Z,1.33
2023-01-31T17:33:56.476Z,1.35
2023-01-31T17:36:23.537Z,1.38
2023-01-31T17:38:52.034Z,1.88
2023-01-31T17:41:20.713Z,1.52
2023-01-31T17:43:47.867Z,1.40
2023-01-31T17:46:16.612Z,1.52
2023-01-31T17:48:43.617Z,1.45
2023-01-31T17:51:11.086Z,1.50
2023-01-31T17:53:48.820Z,1.50
2023-01-31T17:56:17.667Z,1.30
2023-01-31T17:58:44.793Z,1.58
2023-01-31T18:01:14.066Z,1.17
2023-01-31T18:03:41.322Z,1.60
2023-01-31T18:06:09.197Z,1.23
2023-01-31T18:08:36.933Z,1.55
2023-01-31T18:11:09.064Z,1.70
2023-01-31T18:13:38.267Z,1.27
2023-01-31T18:16:13.511Z,1.40
2023-01-31T18:18:46.080Z,1.95
2023-01-31T18:21:17.299Z,1.70
2023-01-31T18:23:44.042Z,1.80
2023-01-31T18:26:10.989Z,1.65
2023-01-31T18:28:37.763Z,1.40
2023-01-31T18:31:07.412Z,1.80
2023-01-31T18:33:35.420Z,1.75
2023-01-31T18:36:02.190Z,1.73
2023-01-31T18:38:29.375Z,2.03
2023-01-31T18:40:56.605Z,2.17
2023-01-31T18:43:23.440Z,2.08
2023-01-31T18:45:50.132Z,1.80
2023-01-31T18:48:16.837Z,2.30
2023-01-31T18:50:43.578Z,1.80
2023-01-31T18:53:10.254Z,2.17
2023-01-31T18:55:38.090Z,2.47
2023-01-31T18:58:04.821Z,2.60
2023-01-31T19:00:31.571Z,2.00
2023-01-31T19:02:58.690Z,2.10
2023-01-31T19:05:25.773Z,2.05
2023-01-31T19:07:52.590Z,1.58
2023-01-31T19:10:19.385Z,2.00
2023-01-31T19:12:46.304Z,2.30
2023-01-31T19:15:13.604Z,2.00
2023-01-31T19:17:40.353Z,2.10
2023-01-31T19:20:09.237Z,2.00
2023-01-31T19:22:36.065Z,1.98
2023-01-31T19:25:05.449Z,2.00
2023-01-31T19:27:32.267Z,1.88
2023-01-31T19:29:59.931Z,1.80
2023-01-31T19:32:29.125Z,1.85
2023-01-31T19:34:55.922Z,2.08
2023-01-31T19:37:22.678Z,1.90
2023-01-31T19:39:49.460Z,2.10
2023-01-31T19:42:16.195Z,2.65
2023-01-31T19:44:42.924Z,1.98
2023-01-31T19:47:10.291Z,1.88
2023-01-31T19:49:37.045Z,2.00
2023-01-31T19:52:03.860Z,1.92
2023-01-31T19:54:30.617Z,2.00
2023-01-31T19:56:57.317Z,2.10
2023-01-31T19:59:24.253Z,1.52
2023-01-31T20:01:51.070Z,1.80
2023-01-31T20:04:17.820Z,1.60
2023-01-31T20:06:44.537Z,1.80
2023-01-31T20:09:16.051Z,1.77
2023-01-31T20:11:42.781Z,1.48
2023-01-31T20:14:10.089Z,1.50
2023-01-31T20:16:38.594Z,1.67
2023-01-31T20:19:06.943Z,1.80
2023-01-31T20:21:34.370Z,1.40
2023-01-31T20:24:01.171Z,1.33
2023-01-31T20:26:29.539Z,1.50
2023-01-31T20:28:56.401Z,1.45
2023-01-31T20:31:23.273Z,1.55
2023-01-31T20:33:54.635Z,1.67
2023-01-31T20:36:23.865Z,1.58
2023-01-31T20:38:50.786Z,1.27
2023-01-31T20:41:17.528Z,1.60
2023-01-31T20:43:44.288Z,1.45
2023-01-31T20:46:12.443Z,1.30
2023-01-31T20:48:40.308Z,1.60
2023-01-31T20:51:08.049Z,1.38
2023-01-31T20:53:34.744Z,1.50
2023-01-31T20:56:05.788Z,1.48
2023-01-31T20:58:34.416Z,1.20
2023-01-31T21:01:03.518Z,1.20
2023-01-31T21:03:32.235Z,1.13
2023-01-31T21:06:01.771Z,1.30
2023-01-31T21:08:28.570Z,1.20
2023-01-31T21:10:57.076Z,1.35
2023-01-31T21:13:24.160Z,1.30
2023-01-31T21:15:55.068Z,1.48
2023-01-31T21:18:22.042Z,1.42
2023-01-31T21:20:49.279Z,1.30
2023-01-31T21:23:16.183Z,1.42
2023-01-31T21:25:42.899Z,1.05
2023-01-31T21:28:10.988Z,1.02
2023-01-31T21:30:37.758Z,1.17
2023-01-31T21:33:04.686Z,1.58
2023-01-31T21:35:31.416Z,1.23
2023-01-31T21:37:58.344Z,1.40
2023-01-31T21:40:25.494Z,1.33
2023-01-31T21:42:53.145Z,1.38
2023-01-31T21:45:40.721Z,1.23
2023-01-31T21:48:29.052Z,1.23
2023-01-31T21:50:56.721Z,1.20
2023-01-31T21:53:23.414Z,1.02
2023-01-31T21:55:50.437Z,1.63
2023-01-31T21:58:17.607Z,1.20
2023-01-31T22:00:44.640Z,1.20
2023-01-31T22:03:13.680Z,1.25
2023-01-31T22:05:41.614Z,1.00
2023-01-31T22:08:08.635Z,1.23
2023-01-31T22:10:35.482Z,1.10
2023-01-31T22:13:02.440Z,1.30
2023-01-31T22:15:29.343Z,1.40
2023-01-31T22:17:56.293Z,1.33
2023-01-31T22:20:23.639Z,1.48
2023-01-31T22:22:50.592Z,1.27
2023-01-31T22:25:17.559Z,1.10
2023-01-31T22:27:45.248Z,1.00
2023-01-31T22:30:16.888Z,1.30
2023-01-31T22:32:45.119Z,1.38
2023-01-31T22:35:11.901Z,1.27
2023-01-31T22:37:39.499Z,1.25
2023-01-31T22:40:06.603Z,1.38
2023-01-31T22:42:33.314Z,1.23
2023-01-31T22:45:00.040Z,1.20
2023-01-31T22:47:26.872Z,1.30
2023-01-31T22:49:53.596Z,1.30
2023-01-31T22:52:20.311Z,1.02
2023-01-31T22:54:47.009Z,1.30
2023-01-31T22:57:14.327Z,1.10
2023-01-31T22:59:41.634Z,1.33
2023-01-31T23:02:08.371Z,1.17
2023-01-31T23:04:35.168Z,1.13
2023-01-31T23:07:01.922Z,1.33
2023-01-31T23:09:28.591Z,1.20
2023-01-31T23:11:55.249Z,1.20
2023-01-31T23:14:21.918Z,1.10
2023-01-31T23:17:07.140Z,1.30
2023-01-31T23:19:34.027Z,1.30
2023-01-31T23:22:00.914Z,1.25
2023-01-31T23:24:27.616Z,1.15
2023-01-31T23:26:54.673Z,1.10
2023-01-31T23:29:21.419Z,1.30
2023-01-31T23:31:48.609Z,1.48
2023-01-31T23:34:16.183Z,1.27
2023-01-31T23:36:42.944Z,1.27
2023-01-31T23:39:09.785Z,1.50
2023-01-31T23:41:36.481Z,1.20
2023-01-31T23:44:03.605Z,1.30
2023-01-31T23:46:30.551Z,1.20
2023-01-31T23:48:57.303Z,1.30
2023-01-31T23:51:24.025Z,1.30
2023-01-31T23:53:50.821Z,1.15
2023-01-31T23:56:18.824Z,1.27
2023-01-31T23:58:45.534Z,1.17
